Hazen, Pennsylvania
Current Conditions -  °F | °C
As of 10:53 AM on Monday 24 Nov 2014 (Local Time) from KDUJ Reporting Station
Broken Clouds Broken Clouds  
Wind Chill: 64°   Ceiling: 4900
Heat Index: 64°   Visibility: 10mi
Dew Point: 46°   Wind: 17mph
Humidity: 52%   Direction: 210°SSW
Pressure: 29.44"   Gusts: 35mph
Location:  41.1661°N, 79.0421°W
Report Text: KDUJ 241553Z AUTO 21015G30KT 10SM BKN049 BKN060 18/08 A2944 RMK AO2 PK WND 24030/1551 SLP964 T01780078
Loading
Personal Weather Stations






























Interactive Weather Map New forecast layout! Learn more

10-Day Weather Forecast

Advertisements
Track Severe Weather on mobile